sensor_id;sensor_type;location;lat;lon;timestamp;temperature;humidity
60293;DHT22;52402;52.670;6.750;2022-07-18T00:00:08;15.50;99.90
60293;DHT22;52402;52.670;6.750;2022-07-18T00:02:34;15.50;99.90
60293;DHT22;52402;52.670;6.750;2022-07-18T00:05:00;15.50;99.90
60293;DHT22;52402;52.670;6.750;2022-07-18T00:07:26;15.50;99.90
60293;DHT22;52402;52.670;6.750;2022-07-18T00:09:52;15.40;99.90
60293;DHT22;52402;52.670;6.750;2022-07-18T00:12:18;15.40;99.90
60293;DHT22;52402;52.670;6.750;2022-07-18T00:14:44;15.40;99.90
60293;DHT22;52402;52.670;6.750;2022-07-18T00:17:10;15.40;99.90
60293;DHT22;52402;52.670;6.750;2022-07-18T00:19:36;15.40;99.90
60293;DHT22;52402;52.670;6.750;2022-07-18T00:22:03;15.30;99.90
60293;DHT22;52402;52.670;6.750;2022-07-18T00:24:28;15.30;99.90
60293;DHT22;52402;52.670;6.750;2022-07-18T00:26:54;15.30;99.90
60293;DHT22;52402;52.670;6.750;2022-07-18T00:29:19;15.20;99.90
60293;DHT22;52402;52.670;6.750;2022-07-18T00:31:45;15.20;99.90
60293;DHT22;52402;52.670;6.750;2022-07-18T00:34:11;15.10;99.90
60293;DHT22;52402;52.670;6.750;2022-07-18T00:36:36;15.20;99.90
60293;DHT22;52402;52.670;6.750;2022-07-18T00:39:02;15.10;99.90
60293;DHT22;52402;52.670;6.750;2022-07-18T00:41:28;15.10;99.90
60293;DHT22;52402;52.670;6.750;2022-07-18T00:43:54;15.10;99.90
60293;DHT22;52402;52.670;6.750;2022-07-18T00:46:26;15.10;99.90
60293;DHT22;52402;52.670;6.750;2022-07-18T00:48:53;15.10;99.90
60293;DHT22;52402;52.670;6.750;2022-07-18T00:51:19;15.00;99.90
60293;DHT22;52402;52.670;6.750;2022-07-18T00:53:46;15.00;99.90
60293;DHT22;52402;52.670;6.750;2022-07-18T00:56:13;15.00;99.90
60293;DHT22;52402;52.670;6.750;2022-07-18T00:58:40;15.00;99.90
60293;DHT22;52402;52.670;6.750;2022-07-18T01:01:07;14.90;99.90
60293;DHT22;52402;52.670;6.750;2022-07-18T01:03:51;14.90;99.90
60293;DHT22;52402;52.670;6.750;2022-07-18T01:06:17;14.90;99.90
60293;DHT22;52402;52.670;6.750;2022-07-18T01:08:43;14.80;99.90
60293;DHT22;52402;52.670;6.750;2022-07-18T01:11:09;14.80;99.90
60293;DHT22;52402;52.670;6.750;2022-07-18T01:13:37;14.80;99.90
60293;DHT22;52402;52.670;6.750;2022-07-18T01:16:03;14.80;99.90
60293;DHT22;52402;52.670;6.750;2022-07-18T01:18:29;14.80;99.90
60293;DHT22;52402;52.670;6.750;2022-07-18T01:20:55;14.80;99.90
60293;DHT22;52402;52.670;6.750;2022-07-18T01:23:20;14.70;99.90
60293;DHT22;52402;52.670;6.750;2022-07-18T01:25:46;14.70;99.90
60293;DHT22;52402;52.670;6.750;2022-07-18T01:28:12;14.60;99.90
60293;DHT22;52402;52.670;6.750;2022-07-18T01:30:38;14.60;99.90
60293;DHT22;52402;52.670;6.750;2022-07-18T01:33:04;14.60;99.90
60293;DHT22;52402;52.670;6.750;2022-07-18T01:35:30;14.60;99.90
60293;DHT22;52402;52.670;6.750;2022-07-18T01:37:58;14.50;99.90
60293;DHT22;52402;52.670;6.750;2022-07-18T01:40:24;14.50;99.90
60293;DHT22;52402;52.670;6.750;2022-07-18T01:42:50;14.50;99.90
60293;DHT22;52402;52.670;6.750;2022-07-18T01:45:16;14.50;99.90
60293;DHT22;52402;52.670;6.750;2022-07-18T01:47:42;14.50;99.90
60293;DHT22;52402;52.670;6.750;2022-07-18T01:50:10;14.50;99.90
60293;DHT22;52402;52.670;6.750;2022-07-18T01:52:36;14.40;99.90
60293;DHT22;52402;52.670;6.750;2022-07-18T01:55:03;14.30;99.90
60293;DHT22;52402;52.670;6.750;2022-07-18T01:57:29;14.30;99.90
60293;DHT22;52402;52.670;6.750;2022-07-18T01:59:55;14.30;99.90
60293;DHT22;52402;52.670;6.750;2022-07-18T02:02:21;14.30;99.90
60293;DHT22;52402;52.670;6.750;2022-07-18T02:04:46;14.30;99.90
60293;DHT22;52402;52.670;6.750;2022-07-18T02:07:34;14.30;99.90
60293;DHT22;52402;52.670;6.750;2022-07-18T02:10:05;14.20;99.90
60293;DHT22;52402;52.670;6.750;2022-07-18T02:12:32;14.20;99.90
60293;DHT22;52402;52.670;6.750;2022-07-18T02:14:57;14.10;99.90
60293;DHT22;52402;52.670;6.750;2022-07-18T02:17:23;14.10;99.90
60293;DHT22;52402;52.670;6.750;2022-07-18T02:19:49;14.10;99.90
60293;DHT22;52402;52.670;6.750;2022-07-18T02:22:14;14.10;99.90
60293;DHT22;52402;52.670;6.750;2022-07-18T02:24:40;14.10;99.90
60293;DHT22;52402;52.670;6.750;2022-07-18T02:27:06;14.00;99.90
60293;DHT22;52402;52.670;6.750;2022-07-18T02:29:32;14.00;99.90
60293;DHT22;52402;52.670;6.750;2022-07-18T02:31:57;14.00;99.90
60293;DHT22;52402;52.670;6.750;2022-07-18T02:34:23;13.90;99.90
60293;DHT22;52402;52.670;6.750;2022-07-18T02:36:49;13.80;99.90
60293;DHT22;52402;52.670;6.750;2022-07-18T02:39:16;13.70;99.90
60293;DHT22;52402;52.670;6.750;2022-07-18T02:41:42;13.70;99.90
60293;DHT22;52402;52.670;6.750;2022-07-18T02:44:08;13.70;99.90
60293;DHT22;52402;52.670;6.750;2022-07-18T02:46:34;13.60;99.90
60293;DHT22;52402;52.670;6.750;2022-07-18T02:48:59;13.60;99.90
60293;DHT22;52402;52.670;6.750;2022-07-18T02:51:25;13.70;99.90
60293;DHT22;52402;52.670;6.750;2022-07-18T02:53:51;13.70;99.90
60293;DHT22;52402;52.670;6.750;2022-07-18T02:56:17;13.70;99.90
60293;DHT22;52402;52.670;6.750;2022-07-18T02:58:42;13.70;99.90
60293;DHT22;52402;52.670;6.750;2022-07-18T03:01:08;13.70;99.90
60293;DHT22;52402;52.670;6.750;2022-07-18T03:03:34;13.60;99.90
60293;DHT22;52402;52.670;6.750;2022-07-18T03:05:59;13.60;99.90
60293;DHT22;52402;52.670;6.750;2022-07-18T03:08:25;13.60;99.90
60293;DHT22;52402;52.670;6.750;2022-07-18T03:10:50;13.60;99.90
60293;DHT22;52402;52.670;6.750;2022-07-18T03:13:16;13.60;99.90
60293;DHT22;52402;52.670;6.750;2022-07-18T03:15:41;13.60;99.90
60293;DHT22;52402;52.670;6.750;2022-07-18T03:18:07;13.60;99.90
60293;DHT22;52402;52.670;6.750;2022-07-18T03:20:33;13.50;99.90
60293;DHT22;52402;52.670;6.750;2022-07-18T03:22:58;13.50;99.90
60293;DHT22;52402;52.670;6.750;2022-07-18T03:25:25;13.50;99.90
60293;DHT22;52402;52.670;6.750;2022-07-18T03:27:50;13.50;99.90
60293;DHT22;52402;52.670;6.750;2022-07-18T03:30:16;13.50;99.90
60293;DHT22;52402;52.670;6.750;2022-07-18T03:32:42;13.40;99.90
60293;DHT22;52402;52.670;6.750;2022-07-18T03:35:07;13.40;99.90
60293;DHT22;52402;52.670;6.750;2022-07-18T03:37:33;13.40;99.90
60293;DHT22;52402;52.670;6.750;2022-07-18T03:39:59;13.40;99.90
60293;DHT22;52402;52.670;6.750;2022-07-18T03:42:24;13.40;99.90
60293;DHT22;52402;52.670;6.750;2022-07-18T03:44:50;13.40;99.90
60293;DHT22;52402;52.670;6.750;2022-07-18T03:47:15;13.40;99.90
60293;DHT22;52402;52.670;6.750;2022-07-18T03:49:41;13.50;99.90
60293;DHT22;52402;52.670;6.750;2022-07-18T03:52:06;13.50;99.90
60293;DHT22;52402;52.670;6.750;2022-07-18T03:54:32;13.50;99.90
60293;DHT22;52402;52.670;6.750;2022-07-18T03:56:57;13.50;99.90
60293;DHT22;52402;52.670;6.750;2022-07-18T03:59:23;13.50;99.90
60293;DHT22;52402;52.670;6.750;2022-07-18T04:01:49;13.50;99.90
60293;DHT22;52402;52.670;6.750;2022-07-18T04:04:14;13.60;99.90
60293;DHT22;52402;52.670;6.750;2022-07-18T04:06:40;13.50;99.90
60293;DHT22;52402;52.670;6.750;2022-07-18T04:09:05;13.60;99.90
60293;DHT22;52402;52.670;6.750;2022-07-18T04:11:31;13.60;99.90
60293;DHT22;52402;52.670;6.750;2022-07-18T04:13:57;13.60;99.90
60293;DHT22;52402;52.670;6.750;2022-07-18T04:16:23;13.60;99.90
60293;DHT22;52402;52.670;6.750;2022-07-18T04:18:49;13.70;99.90
60293;DHT22;52402;52.670;6.750;2022-07-18T04:21:15;13.70;99.90
60293;DHT22;52402;52.670;6.750;2022-07-18T04:23:41;13.70;99.90
60293;DHT22;52402;52.670;6.750;2022-07-18T04:26:07;13.60;99.90
60293;DHT22;52402;52.670;6.750;2022-07-18T04:28:32;13.70;99.90
60293;DHT22;52402;52.670;6.750;2022-07-18T04:30:58;13.60;99.90
60293;DHT22;52402;52.670;6.750;2022-07-18T04:33:24;13.70;99.90
60293;DHT22;52402;52.670;6.750;2022-07-18T04:35:49;13.70;99.90
60293;DHT22;52402;52.670;6.750;2022-07-18T04:38:15;13.70;99.90
60293;DHT22;52402;52.670;6.750;2022-07-18T04:40:41;13.80;99.90
60293;DHT22;52402;52.670;6.750;2022-07-18T04:43:07;13.80;99.90
60293;DHT22;52402;52.670;6.750;2022-07-18T04:45:34;13.80;99.90
60293;DHT22;52402;52.670;6.750;2022-07-18T04:48:00;13.90;99.90
60293;DHT22;52402;52.670;6.750;2022-07-18T04:50:26;13.90;99.90
60293;DHT22;52402;52.670;6.750;2022-07-18T04:52:52;13.90;99.90
60293;DHT22;52402;52.670;6.750;2022-07-18T04:55:20;14.00;99.90
60293;DHT22;52402;52.670;6.750;2022-07-18T04:57:47;14.00;99.90
60293;DHT22;52402;52.670;6.750;2022-07-18T05:00:16;14.10;99.90
60293;DHT22;52402;52.670;6.750;2022-07-18T05:02:43;14.20;99.90
60293;DHT22;52402;52.670;6.750;2022-07-18T05:05:10;14.20;99.90
60293;DHT22;52402;52.670;6.750;2022-07-18T05:07:37;14.30;99.90
60293;DHT22;52402;52.670;6.750;2022-07-18T05:10:03;14.40;99.90
60293;DHT22;52402;52.670;6.750;2022-07-18T05:12:33;14.50;99.90
60293;DHT22;52402;52.670;6.750;2022-07-18T05:14:59;14.50;99.90
60293;DHT22;52402;52.670;6.750;2022-07-18T05:17:24;14.60;99.90
60293;DHT22;52402;52.670;6.750;2022-07-18T05:19:50;14.60;99.90
60293;DHT22;52402;52.670;6.750;2022-07-18T05:22:15;14.70;99.90
60293;DHT22;52402;52.670;6.750;2022-07-18T05:24:41;14.70;99.90
60293;DHT22;52402;52.670;6.750;2022-07-18T05:27:06;14.80;99.90
60293;DHT22;52402;52.670;6.750;2022-07-18T05:29:32;14.80;99.90
60293;DHT22;52402;52.670;6.750;2022-07-18T05:31:58;14.90;99.90
60293;DHT22;52402;52.670;6.750;2022-07-18T05:34:24;15.00;99.90
60293;DHT22;52402;52.670;6.750;2022-07-18T05:36:50;15.00;99.90
60293;DHT22;52402;52.670;6.750;2022-07-18T05:39:15;15.10;99.90
60293;DHT22;52402;52.670;6.750;2022-07-18T05:41:41;15.20;99.90
60293;DHT22;52402;52.670;6.750;2022-07-18T05:44:06;15.20;99.90
60293;DHT22;52402;52.670;6.750;2022-07-18T05:46:32;15.30;99.90
60293;DHT22;52402;52.670;6.750;2022-07-18T05:48:57;15.40;99.90
60293;DHT22;52402;52.670;6.750;2022-07-18T05:51:23;15.50;99.90
60293;DHT22;52402;52.670;6.750;2022-07-18T05:53:49;15.60;99.90
60293;DHT22;52402;52.670;6.750;2022-07-18T05:56:15;15.70;99.90
60293;DHT22;52402;52.670;6.750;2022-07-18T05:58:41;15.90;99.90
60293;DHT22;52402;52.670;6.750;2022-07-18T06:01:07;16.10;99.90
60293;DHT22;52402;52.670;6.750;2022-07-18T06:03:32;16.20;99.90
60293;DHT22;52402;52.670;6.750;2022-07-18T06:05:58;16.40;99.90
60293;DHT22;52402;52.670;6.750;2022-07-18T06:08:23;16.50;99.90
60293;DHT22;52402;52.670;6.750;2022-07-18T06:10:49;16.70;99.90
60293;DHT22;52402;52.670;6.750;2022-07-18T06:13:15;16.90;99.90
60293;DHT22;52402;52.670;6.750;2022-07-18T06:15:40;16.90;99.90
60293;DHT22;52402;52.670;6.750;2022-07-18T06:18:06;17.00;99.90
60293;DHT22;52402;52.670;6.750;2022-07-18T06:20:31;17.10;99.90
60293;DHT22;52402;52.670;6.750;2022-07-18T06:22:57;17.30;99.90
60293;DHT22;52402;52.670;6.750;2022-07-18T06:25:22;17.40;99.90
60293;DHT22;52402;52.670;6.750;2022-07-18T06:27:48;17.50;99.90
60293;DHT22;52402;52.670;6.750;2022-07-18T06:30:14;17.60;99.90
60293;DHT22;52402;52.670;6.750;2022-07-18T06:32:40;17.70;99.90
60293;DHT22;52402;52.670;6.750;2022-07-18T06:35:06;17.90;99.90
60293;DHT22;52402;52.670;6.750;2022-07-18T06:37:32;18.00;99.90
60293;DHT22;52402;52.670;6.750;2022-07-18T06:39:58;18.20;99.90
60293;DHT22;52402;52.670;6.750;2022-07-18T06:42:23;18.30;99.90
60293;DHT22;52402;52.670;6.750;2022-07-18T06:44:49;18.40;99.90
60293;DHT22;52402;52.670;6.750;2022-07-18T06:47:14;18.60;99.90
60293;DHT22;52402;52.670;6.750;2022-07-18T06:49:40;18.70;99.90
60293;DHT22;52402;52.670;6.750;2022-07-18T06:52:05;18.70;99.90
60293;DHT22;52402;52.670;6.750;2022-07-18T06:54:31;18.80;99.90
60293;DHT22;52402;52.670;6.750;2022-07-18T06:56:58;18.80;99.90
60293;DHT22;52402;52.670;6.750;2022-07-18T06:59:25;18.90;99.90
60293;DHT22;52402;52.670;6.750;2022-07-18T07:01:51;18.90;99.90
60293;DHT22;52402;52.670;6.750;2022-07-18T07:04:17;19.00;99.90
60293;DHT22;52402;52.670;6.750;2022-07-18T07:06:42;19.00;99.90
60293;DHT22;52402;52.670;6.750;2022-07-18T07:09:08;19.10;99.90
60293;DHT22;52402;52.670;6.750;2022-07-18T07:11:33;19.20;99.90
60293;DHT22;52402;52.670;6.750;2022-07-18T07:13:59;19.20;99.90
60293;DHT22;52402;52.670;6.750;2022-07-18T07:16:25;19.30;99.90
60293;DHT22;52402;52.670;6.750;2022-07-18T07:18:50;19.40;99.90
60293;DHT22;52402;52.670;6.750;2022-07-18T07:21:16;19.50;99.90
60293;DHT22;52402;52.670;6.750;2022-07-18T07:23:41;19.50;99.90
60293;DHT22;52402;52.670;6.750;2022-07-18T07:26:07;19.70;99.90
60293;DHT22;52402;52.670;6.750;2022-07-18T07:28:33;19.90;99.90
60293;DHT22;52402;52.670;6.750;2022-07-18T07:30:59;20.00;99.90
60293;DHT22;52402;52.670;6.750;2022-07-18T07:33:25;20.10;99.90
60293;DHT22;52402;52.670;6.750;2022-07-18T07:35:50;20.30;99.90
60293;DHT22;52402;52.670;6.750;2022-07-18T07:38:16;20.40;99.90
60293;DHT22;52402;52.670;6.750;2022-07-18T07:40:46;20.60;99.90
60293;DHT22;52402;52.670;6.750;2022-07-18T07:43:14;20.70;99.90
60293;DHT22;52402;52.670;6.750;2022-07-18T07:45:40;20.90;99.90
60293;DHT22;52402;52.670;6.750;2022-07-18T07:48:06;21.00;99.90
60293;DHT22;52402;52.670;6.750;2022-07-18T07:50:32;21.20;99.90
60293;DHT22;52402;52.670;6.750;2022-07-18T07:52:58;21.30;99.90
60293;DHT22;52402;52.670;6.750;2022-07-18T07:55:24;21.40;99.90
60293;DHT22;52402;52.670;6.750;2022-07-18T07:57:51;21.50;99.90
60293;DHT22;52402;52.670;6.750;2022-07-18T08:00:16;21.70;99.90
60293;DHT22;52402;52.670;6.750;2022-07-18T08:05:20;22.10;99.20
60293;DHT22;52402;52.670;6.750;2022-07-18T08:07:46;22.30;98.90
60293;DHT22;52402;52.670;6.750;2022-07-18T08:10:11;22.40;98.70
60293;DHT22;52402;52.670;6.750;2022-07-18T08:12:37;22.50;98.00
60293;DHT22;52402;52.670;6.750;2022-07-18T08:15:03;22.60;97.50
60293;DHT22;52402;52.670;6.750;2022-07-18T08:17:29;22.70;97.90
60293;DHT22;52402;52.670;6.750;2022-07-18T08:19:54;22.90;97.20
60293;DHT22;52402;52.670;6.750;2022-07-18T08:22:20;23.10;95.50
60293;DHT22;52402;52.670;6.750;2022-07-18T08:24:45;23.30;94.50
60293;DHT22;52402;52.670;6.750;2022-07-18T08:27:11;23.50;94.20
60293;DHT22;52402;52.670;6.750;2022-07-18T08:29:37;23.60;94.30
60293;DHT22;52402;52.670;6.750;2022-07-18T08:32:02;23.60;93.50
60293;DHT22;52402;52.670;6.750;2022-07-18T08:34:28;23.70;93.00
60293;DHT22;52402;52.670;6.750;2022-07-18T08:36:53;23.80;93.50
60293;DHT22;52402;52.670;6.750;2022-07-18T08:39:19;23.90;94.40
60293;DHT22;52402;52.670;6.750;2022-07-18T08:41:45;24.00;94.00
60293;DHT22;52402;52.670;6.750;2022-07-18T08:44:14;24.10;92.00
60293;DHT22;52402;52.670;6.750;2022-07-18T08:46:45;24.20;91.90
60293;DHT22;52402;52.670;6.750;2022-07-18T08:49:13;24.40;92.90
60293;DHT22;52402;52.670;6.750;2022-07-18T08:51:39;24.40;92.80
60293;DHT22;52402;52.670;6.750;2022-07-18T08:54:06;24.50;92.30
60293;DHT22;52402;52.670;6.750;2022-07-18T08:56:31;24.60;91.30
60293;DHT22;52402;52.670;6.750;2022-07-18T08:59:00;24.80;91.30
60293;DHT22;52402;52.670;6.750;2022-07-18T09:01:26;25.00;91.70
60293;DHT22;52402;52.670;6.750;2022-07-18T09:03:52;25.00;92.30
60293;DHT22;52402;52.670;6.750;2022-07-18T09:06:42;25.00;91.80
60293;DHT22;52402;52.670;6.750;2022-07-18T09:09:11;25.00;90.80
60293;DHT22;52402;52.670;6.750;2022-07-18T09:11:49;25.00;90.30
60293;DHT22;52402;52.670;6.750;2022-07-18T09:14:33;25.00;89.90
60293;DHT22;52402;52.670;6.750;2022-07-18T09:17:07;25.10;90.40
60293;DHT22;52402;52.670;6.750;2022-07-18T09:19:33;25.20;89.70
60293;DHT22;52402;52.670;6.750;2022-07-18T09:22:18;25.50;89.00
60293;DHT22;52402;52.670;6.750;2022-07-18T09:27:33;25.80;88.20
60293;DHT22;52402;52.670;6.750;2022-07-18T09:35:28;26.10;87.10
60293;DHT22;52402;52.670;6.750;2022-07-18T09:38:00;26.10;86.10
60293;DHT22;52402;52.670;6.750;2022-07-18T09:40:29;26.20;85.60
60293;DHT22;52402;52.670;6.750;2022-07-18T09:42:57;26.40;84.30
60293;DHT22;52402;52.670;6.750;2022-07-18T09:48:00;26.60;86.30
60293;DHT22;52402;52.670;6.750;2022-07-18T09:50:29;26.70;85.60
60293;DHT22;52402;52.670;6.750;2022-07-18T09:53:01;26.90;83.90
60293;DHT22;52402;52.670;6.750;2022-07-18T09:55:27;26.90;83.70
60293;DHT22;52402;52.670;6.750;2022-07-18T09:58:05;27.00;82.70
60293;DHT22;52402;52.670;6.750;2022-07-18T10:00:33;26.90;82.20
60293;DHT22;52402;52.670;6.750;2022-07-18T10:03:01;26.90;79.90
60293;DHT22;52402;52.670;6.750;2022-07-18T10:05:31;27.00;81.60
60293;DHT22;52402;52.670;6.750;2022-07-18T10:07:58;27.10;78.70
60293;DHT22;52402;52.670;6.750;2022-07-18T10:10:24;27.10;78.60
60293;DHT22;52402;52.670;6.750;2022-07-18T10:12:53;27.30;75.90
60293;DHT22;52402;52.670;6.750;2022-07-18T10:15:21;27.50;76.60
60293;DHT22;52402;52.670;6.750;2022-07-18T10:17:47;27.70;75.20
60293;DHT22;52402;52.670;6.750;2022-07-18T10:20:13;27.70;76.00
60293;DHT22;52402;52.670;6.750;2022-07-18T10:22:42;27.70;74.60
60293;DHT22;52402;52.670;6.750;2022-07-18T10:25:10;27.80;74.80
60293;DHT22;52402;52.670;6.750;2022-07-18T10:28:04;28.00;73.40
60293;DHT22;52402;52.670;6.750;2022-07-18T10:30:42;28.10;74.20
60293;DHT22;52402;52.670;6.750;2022-07-18T10:33:35;28.20;73.50
60293;DHT22;52402;52.670;6.750;2022-07-18T10:36:15;28.10;72.90
60293;DHT22;52402;52.670;6.750;2022-07-18T10:39:04;28.20;72.40
60293;DHT22;52402;52.670;6.750;2022-07-18T11:18:32;29.20;67.80
60293;DHT22;52402;52.670;6.750;2022-07-18T11:20:57;29.30;68.80
60293;DHT22;52402;52.670;6.750;2022-07-18T11:23:25;29.40;67.70
60293;DHT22;52402;52.670;6.750;2022-07-18T11:25:57;29.50;68.70
60293;DHT22;52402;52.670;6.750;2022-07-18T11:28:24;29.40;67.10
60293;DHT22;52402;52.670;6.750;2022-07-18T11:31:05;29.50;66.50
60293;DHT22;52402;52.670;6.750;2022-07-18T11:33:32;29.70;65.60
60293;DHT22;52402;52.670;6.750;2022-07-18T11:36:12;29.80;65.60
60293;DHT22;52402;52.670;6.750;2022-07-18T11:38:45;29.80;67.60
60293;DHT22;52402;52.670;6.750;2022-07-18T11:41:11;29.90;67.80
60293;DHT22;52402;52.670;6.750;2022-07-18T11:43:37;29.80;68.50
60293;DHT22;52402;52.670;6.750;2022-07-18T11:46:08;30.10;67.40
60293;DHT22;52402;52.670;6.750;2022-07-18T11:48:37;30.10;66.80
60293;DHT22;52402;52.670;6.750;2022-07-18T11:51:12;30.10;66.00
60293;DHT22;52402;52.670;6.750;2022-07-18T11:53:49;30.20;67.60
60293;DHT22;52402;52.670;6.750;2022-07-18T11:56:17;30.30;67.90
60293;DHT22;52402;52.670;6.750;2022-07-18T11:58:45;30.30;67.40
60293;DHT22;52402;52.670;6.750;2022-07-18T12:01:11;30.10;68.30
60293;DHT22;52402;52.670;6.750;2022-07-18T12:03:41;30.10;67.20
60293;DHT22;52402;52.670;6.750;2022-07-18T12:06:14;30.10;68.20
60293;DHT22;52402;52.670;6.750;2022-07-18T12:08:42;30.30;68.30
60293;DHT22;52402;52.670;6.750;2022-07-18T12:13:57;30.70;68.00
60293;DHT22;52402;52.670;6.750;2022-07-18T12:16:39;31.00;66.90
60293;DHT22;52402;52.670;6.750;2022-07-18T12:19:13;31.20;66.20
60293;DHT22;52402;52.670;6.750;2022-07-18T12:21:49;31.60;65.50
60293;DHT22;52402;52.670;6.750;2022-07-18T12:24:30;32.00;64.90
60293;DHT22;52402;52.670;6.750;2022-07-18T12:30:18;32.10;62.70
60293;DHT22;52402;52.670;6.750;2022-07-18T12:35:33;32.50;63.50
60293;DHT22;52402;52.670;6.750;2022-07-18T12:45:55;32.70;62.30
60293;DHT22;52402;52.670;6.750;2022-07-18T12:48:21;33.00;62.30
60293;DHT22;52402;52.670;6.750;2022-07-18T12:50:56;33.20;60.40
60293;DHT22;52402;52.670;6.750;2022-07-18T12:53:22;33.40;58.90
60293;DHT22;52402;52.670;6.750;2022-07-18T12:55:48;33.40;60.50
60293;DHT22;52402;52.670;6.750;2022-07-18T12:58:14;33.60;60.10
60293;DHT22;52402;52.670;6.750;2022-07-18T13:00:39;33.40;59.50
60293;DHT22;52402;52.670;6.750;2022-07-18T13:03:05;33.60;58.90
60293;DHT22;52402;52.670;6.750;2022-07-18T13:05:31;33.70;58.50
60293;DHT22;52402;52.670;6.750;2022-07-18T13:07:57;33.70;60.00
60293;DHT22;52402;52.670;6.750;2022-07-18T13:10:23;33.40;58.20
60293;DHT22;52402;52.670;6.750;2022-07-18T13:12:49;33.40;58.20
60293;DHT22;52402;52.670;6.750;2022-07-18T13:15:15;33.20;59.40
60293;DHT22;52402;52.670;6.750;2022-07-18T13:17:44;32.90;58.70
60293;DHT22;52402;52.670;6.750;2022-07-18T13:20:10;32.70;59.20
60293;DHT22;52402;52.670;6.750;2022-07-18T13:22:36;32.50;60.40
60293;DHT22;52402;52.670;6.750;2022-07-18T13:25:05;32.30;61.10
60293;DHT22;52402;52.670;6.750;2022-07-18T13:27:31;32.20;62.30
60293;DHT22;52402;52.670;6.750;2022-07-18T13:29:58;32.10;61.60
60293;DHT22;52402;52.670;6.750;2022-07-18T13:32:27;32.10;61.10
60293;DHT22;52402;52.670;6.750;2022-07-18T13:34:52;31.90;60.50
60293;DHT22;52402;52.670;6.750;2022-07-18T13:37:18;31.60;59.00
60293;DHT22;52402;52.670;6.750;2022-07-18T13:39:44;31.50;61.10
60293;DHT22;52402;52.670;6.750;2022-07-18T13:42:09;31.50;61.80
60293;DHT22;52402;52.670;6.750;2022-07-18T13:44:35;31.20;60.50
60293;DHT22;52402;52.670;6.750;2022-07-18T13:47:00;31.10;61.90
60293;DHT22;52402;52.670;6.750;2022-07-18T13:49:26;30.90;61.80
60293;DHT22;52402;52.670;6.750;2022-07-18T13:51:51;30.70;61.00
60293;DHT22;52402;52.670;6.750;2022-07-18T13:54:17;30.60;60.70
60293;DHT22;52402;52.670;6.750;2022-07-18T13:56:44;30.50;62.20
60293;DHT22;52402;52.670;6.750;2022-07-18T13:59:10;30.40;63.30
60293;DHT22;52402;52.670;6.750;2022-07-18T14:01:36;30.20;64.80
60293;DHT22;52402;52.670;6.750;2022-07-18T14:04:02;30.20;65.30
60293;DHT22;52402;52.670;6.750;2022-07-18T14:06:28;30.10;65.90
60293;DHT22;52402;52.670;6.750;2022-07-18T14:08:53;30.00;65.00
60293;DHT22;52402;52.670;6.750;2022-07-18T14:11:19;30.10;64.70
60293;DHT22;52402;52.670;6.750;2022-07-18T14:13:45;30.40;65.20
60293;DHT22;52402;52.670;6.750;2022-07-18T14:16:13;30.70;62.70
60293;DHT22;52402;52.670;6.750;2022-07-18T14:18:39;30.90;63.20
60293;DHT22;52402;52.670;6.750;2022-07-18T14:21:04;30.70;59.80
60293;DHT22;52402;52.670;6.750;2022-07-18T14:23:30;30.60;61.60
60293;DHT22;52402;52.670;6.750;2022-07-18T14:25:55;30.60;64.40
60293;DHT22;52402;52.670;6.750;2022-07-18T14:28:21;30.50;66.20
60293;DHT22;52402;52.670;6.750;2022-07-18T14:30:47;30.60;62.30
60293;DHT22;52402;52.670;6.750;2022-07-18T14:33:12;31.10;64.20
60293;DHT22;52402;52.670;6.750;2022-07-18T14:35:38;31.40;63.10
60293;DHT22;52402;52.670;6.750;2022-07-18T14:38:04;31.40;62.90
60293;DHT22;52402;52.670;6.750;2022-07-18T14:40:30;31.30;65.00
60293;DHT22;52402;52.670;6.750;2022-07-18T14:42:56;31.20;64.50
60293;DHT22;52402;52.670;6.750;2022-07-18T14:45:21;31.00;65.00
60293;DHT22;52402;52.670;6.750;2022-07-18T14:47:47;31.10;66.00
60293;DHT22;52402;52.670;6.750;2022-07-18T14:50:13;31.20;65.20
60293;DHT22;52402;52.670;6.750;2022-07-18T14:52:39;31.30;66.80
60293;DHT22;52402;52.670;6.750;2022-07-18T14:55:05;31.70;64.80
60293;DHT22;52402;52.670;6.750;2022-07-18T14:57:31;32.20;63.90
60293;DHT22;52402;52.670;6.750;2022-07-18T14:59:57;32.70;63.30
60293;DHT22;52402;52.670;6.750;2022-07-18T15:02:23;33.10;61.50
60293;DHT22;52402;52.670;6.750;2022-07-18T15:04:48;33.30;60.60
60293;DHT22;52402;52.670;6.750;2022-07-18T15:07:14;33.60;60.10
60293;DHT22;52402;52.670;6.750;2022-07-18T15:09:40;33.90;59.30
60293;DHT22;52402;52.670;6.750;2022-07-18T15:12:06;34.00;59.50
60293;DHT22;52402;52.670;6.750;2022-07-18T15:14:34;33.90;58.60
60293;DHT22;52402;52.670;6.750;2022-07-18T15:16:59;33.60;58.30
60293;DHT22;52402;52.670;6.750;2022-07-18T15:19:25;33.40;59.40
60293;DHT22;52402;52.670;6.750;2022-07-18T15:21:50;33.40;61.70
60293;DHT22;52402;52.670;6.750;2022-07-18T15:24:16;33.40;61.10
60293;DHT22;52402;52.670;6.750;2022-07-18T15:26:42;33.70;60.50
60293;DHT22;52402;52.670;6.750;2022-07-18T15:29:07;34.00;60.00
60293;DHT22;52402;52.670;6.750;2022-07-18T15:31:33;34.00;58.90
60293;DHT22;52402;52.670;6.750;2022-07-18T15:33:59;34.10;59.50
60293;DHT22;52402;52.670;6.750;2022-07-18T15:36:24;34.30;60.00
60293;DHT22;52402;52.670;6.750;2022-07-18T15:38:50;34.50;59.70
60293;DHT22;52402;52.670;6.750;2022-07-18T15:41:15;34.60;59.60
60293;DHT22;52402;52.670;6.750;2022-07-18T15:43:46;34.70;60.00
60293;DHT22;52402;52.670;6.750;2022-07-18T15:46:12;34.80;58.90
60293;DHT22;52402;52.670;6.750;2022-07-18T15:48:44;34.70;59.10
60293;DHT22;52402;52.670;6.750;2022-07-18T15:51:10;34.80;60.00
60293;DHT22;52402;52.670;6.750;2022-07-18T15:53:36;35.00;61.70
60293;DHT22;52402;52.670;6.750;2022-07-18T15:56:03;34.90;59.30
60293;DHT22;52402;52.670;6.750;2022-07-18T15:58:29;35.00;59.70
60293;DHT22;52402;52.670;6.750;2022-07-18T16:00:56;35.10;59.60
60293;DHT22;52402;52.670;6.750;2022-07-18T16:03:22;35.10;58.40
60293;DHT22;52402;52.670;6.750;2022-07-18T16:05:48;35.00;57.90
60293;DHT22;52402;52.670;6.750;2022-07-18T16:08:13;35.00;58.50
60293;DHT22;52402;52.670;6.750;2022-07-18T16:10:39;35.10;60.20
60293;DHT22;52402;52.670;6.750;2022-07-18T16:13:05;35.10;58.40
60293;DHT22;52402;52.670;6.750;2022-07-18T16:15:31;34.90;58.00
60293;DHT22;52402;52.670;6.750;2022-07-18T16:17:56;34.70;57.20
60293;DHT22;52402;52.670;6.750;2022-07-18T16:20:22;34.70;57.50
60293;DHT22;52402;52.670;6.750;2022-07-18T16:22:47;34.60;56.90
60293;DHT22;52402;52.670;6.750;2022-07-18T16:25:13;34.70;58.30
60293;DHT22;52402;52.670;6.750;2022-07-18T16:27:39;34.80;58.00
60293;DHT22;52402;52.670;6.750;2022-07-18T16:30:05;34.90;59.10
60293;DHT22;52402;52.670;6.750;2022-07-18T16:32:31;35.10;57.80
60293;DHT22;52402;52.670;6.750;2022-07-18T16:34:57;35.10;56.30